createdAt,value
2018-06-19T00:00:40.810Z,4.12
2018-06-19T00:03:13.981Z,4.53
2018-06-19T00:05:43.969Z,4.43
2018-06-19T00:08:17.197Z,4.90
2018-06-19T00:10:50.076Z,4.53
2018-06-19T00:13:21.563Z,4.62
2018-06-19T00:15:53.145Z,4.43
2018-06-19T00:18:28.972Z,4.97
2018-06-19T00:21:06.943Z,5.03
2018-06-19T00:23:40.047Z,5.10
2018-06-19T00:26:13.035Z,4.18
2018-06-19T00:28:45.883Z,5.03
2018-06-19T00:31:18.608Z,4.12
2018-06-19T00:33:52.519Z,5.18
2018-06-19T00:36:25.565Z,4.75
2018-06-19T00:38:57.700Z,4.93
2018-06-19T00:41:28.971Z,5.40
2018-06-19T00:44:03.500Z,5.12
2018-06-19T00:46:37.836Z,5.15
2018-06-19T00:49:07.836Z,5.22
2018-06-19T00:51:42.320Z,4.55
2018-06-19T00:54:12.576Z,4.93
2018-06-19T00:57:03.062Z,4.18
2018-06-19T00:59:36.101Z,5.18
2018-06-19T01:02:09.142Z,4.12
2018-06-19T01:04:39.075Z,4.25
2018-06-19T01:07:11.407Z,4.60
2018-06-19T01:09:45.924Z,4.78
2018-06-19T01:12:17.934Z,5.75
2018-06-19T01:14:52.165Z,4.82
2018-06-19T01:17:23.744Z,5.07
2018-06-19T01:19:55.396Z,5.18
2018-06-19T01:22:29.942Z,4.32
2018-06-19T01:25:02.031Z,5.40
2018-06-19T01:27:33.572Z,5.97
2018-06-19T01:30:06.750Z,5.47
2018-06-19T01:32:39.884Z,5.53
2018-06-19T01:35:13.337Z,5.45
2018-06-19T01:37:44.910Z,5.90
2018-06-19T01:40:20.092Z,6.00
2018-06-19T01:42:49.780Z,6.00
2018-06-19T01:45:24.280Z,6.80
2018-06-19T01:47:57.996Z,5.57
2018-06-19T01:50:29.657Z,5.72
2018-06-19T01:53:02.765Z,5.85
2018-06-19T01:55:34.309Z,6.95
2018-06-19T01:58:07.255Z,6.43
2018-06-19T02:00:40.603Z,6.65
2018-06-19T02:03:13.628Z,6.15
2018-06-19T02:05:46.711Z,7.62
2018-06-19T02:08:21.326Z,7.47
2018-06-19T02:10:54.493Z,7.20
2018-06-19T02:13:27.550Z,6.55
2018-06-19T02:15:59.128Z,6.40
2018-06-19T02:18:33.157Z,7.15
2018-06-19T02:21:05.898Z,12.25
2018-06-19T02:23:38.834Z,7.85
2018-06-19T02:26:10.385Z,7.25
2018-06-19T02:28:40.595Z,8.65
2018-06-19T02:31:10.775Z,8.18
2018-06-19T02:33:43.895Z,7.37
2018-06-19T02:36:15.260Z,8.10
2018-06-19T02:38:47.674Z,8.57
2018-06-19T02:41:19.915Z,8.60
2018-06-19T02:43:49.975Z,8.45
2018-06-19T02:46:22.931Z,9.32
2018-06-19T02:48:55.023Z,10.20
2018-06-19T02:51:29.762Z,8.35
2018-06-19T02:54:02.725Z,10.07
2018-06-19T02:56:37.199Z,9.30
2018-06-19T02:59:07.171Z,9.50
2018-06-19T03:01:41.832Z,9.50
2018-06-19T03:04:14.721Z,9.93
2018-06-19T03:06:48.975Z,10.63
2018-06-19T03:09:20.645Z,9.63
2018-06-19T03:11:51.109Z,10.77
2018-06-19T03:14:24.354Z,11.23
2018-06-19T03:16:55.964Z,11.00
2018-06-19T03:19:30.516Z,11.65
2018-06-19T03:22:02.254Z,12.23
2018-06-19T03:24:35.446Z,11.85
2018-06-19T03:27:10.251Z,12.77
2018-06-19T03:29:42.200Z,13.52
2018-06-19T03:32:15.238Z,13.00
2018-06-19T03:34:48.272Z,13.00
2018-06-19T03:37:21.664Z,13.25
2018-06-19T03:39:56.139Z,13.15
2018-06-19T03:42:28.092Z,13.32
2018-06-19T03:44:59.481Z,13.13
2018-06-19T03:47:33.975Z,12.50
2018-06-19T03:50:07.014Z,13.18
2018-06-19T03:52:37.037Z,13.68
2018-06-19T03:55:10.642Z,14.00
2018-06-19T03:57:43.925Z,13.73
2018-06-19T04:00:15.585Z,15.43
2018-06-19T04:02:48.788Z,15.00
2018-06-19T04:05:21.969Z,14.23
2018-06-19T04:07:54.894Z,14.87
2018-06-19T04:10:28.368Z,14.52
2018-06-19T04:13:02.840Z,15.20
2018-06-19T04:15:34.324Z,15.70
2018-06-19T04:18:07.812Z,15.45
2018-06-19T04:20:42.241Z,14.85
2018-06-19T04:23:15.179Z,14.07
2018-06-19T04:25:48.240Z,15.57
2018-06-19T04:28:19.764Z,15.90
2018-06-19T04:30:51.319Z,16.80
2018-06-19T04:33:23.352Z,16.55
2018-06-19T04:35:56.618Z,16.83
2018-06-19T04:38:31.316Z,15.73
2018-06-19T04:41:04.317Z,16.00
2018-06-19T04:43:38.910Z,17.85
2018-06-19T04:46:10.783Z,18.77
2018-06-19T04:48:43.896Z,16.67
2018-06-19T04:51:15.554Z,17.98
2018-06-19T04:53:47.364Z,17.85
2018-06-19T04:56:20.588Z,18.70
2018-06-19T04:58:52.830Z,19.50
2018-06-19T05:01:27.551Z,18.67
2018-06-19T05:04:00.832Z,19.25
2018-06-19T05:06:32.512Z,19.23
2018-06-19T05:09:04.352Z,18.27
2018-06-19T05:11:37.410Z,19.23
2018-06-19T05:14:09.205Z,20.05
2018-06-19T05:16:42.592Z,20.27
2018-06-19T05:19:15.654Z,20.35
2018-06-19T05:21:48.686Z,20.23
2018-06-19T05:24:20.244Z,20.83
2018-06-19T05:26:51.814Z,21.90
2018-06-19T05:29:24.842Z,22.02
2018-06-19T05:31:58.100Z,22.10
2018-06-19T05:34:31.197Z,21.70
2018-06-19T05:37:05.932Z,22.58
2018-06-19T05:39:38.334Z,21.67
2018-06-19T05:42:11.346Z,22.67
2018-06-19T05:44:46.398Z,23.10
2018-06-19T05:47:18.016Z,23.45
2018-06-19T05:49:51.145Z,22.77
2018-06-19T05:52:24.467Z,22.60
2018-06-19T05:54:57.518Z,23.65
2018-06-19T05:57:30.055Z,22.45
2018-06-19T06:00:01.591Z,24.37
2018-06-19T06:02:32.912Z,23.38
2018-06-19T06:05:05.914Z,22.87
2018-06-19T06:07:35.433Z,23.48
2018-06-19T06:10:07.217Z,22.02
2018-06-19T06:12:40.626Z,24.20
2018-06-19T06:15:13.849Z,22.23
2018-06-19T06:17:43.876Z,24.17
2018-06-19T06:20:18.583Z,23.30
2018-06-19T06:22:53.338Z,25.15
2018-06-19T06:25:25.258Z,23.52
2018-06-19T06:27:57.449Z,24.35
2018-06-19T06:30:28.259Z,24.10
2018-06-19T06:32:58.982Z,23.60
2018-06-19T06:35:29.121Z,29.65
2018-06-19T06:38:00.787Z,23.05
2018-06-19T06:40:33.869Z,22.48
2018-06-19T06:43:06.947Z,23.42
2018-06-19T06:45:40.289Z,20.77
2018-06-19T06:48:11.755Z,22.83
2018-06-19T06:50:44.875Z,23.48
2018-06-19T06:53:15.117Z,23.25
2018-06-19T06:55:45.437Z,24.63
2018-06-19T06:58:16.877Z,21.12
2018-06-19T07:00:46.921Z,22.92
2018-06-19T07:03:18.454Z,22.10
2018-06-19T07:05:53.539Z,22.00
2018-06-19T07:08:28.172Z,22.77
2018-06-19T07:10:58.224Z,21.48
2018-06-19T07:13:31.536Z,21.65
2018-06-19T07:16:05.884Z,22.50
2018-06-19T07:18:40.201Z,20.58
2018-06-19T07:21:10.201Z,22.50
2018-06-19T07:23:43.068Z,20.42
2018-06-19T07:26:17.643Z,20.95
2018-06-19T07:28:47.608Z,21.62
2018-06-19T07:31:18.098Z,21.70
2018-06-19T07:33:52.470Z,19.35
2018-06-19T07:36:25.711Z,19.42
2018-06-19T07:38:59.442Z,19.90
2018-06-19T07:41:32.316Z,19.55
2018-06-19T07:44:05.885Z,19.73
2018-06-19T07:46:40.302Z,19.52
2018-06-19T07:49:14.879Z,21.20
2018-06-19T07:51:48.056Z,20.15
2018-06-19T07:54:21.945Z,20.10
2018-06-19T07:56:52.368Z,21.90
2018-06-19T07:59:22.924Z,20.65
2018-06-19T08:01:55.503Z,20.00
2018-06-19T08:04:27.080Z,19.58
2018-06-19T08:07:01.612Z,19.23
2018-06-19T08:09:33.235Z,19.30
2018-06-19T08:12:05.401Z,20.20
2018-06-19T08:14:38.583Z,20.23
2018-06-19T08:17:11.714Z,20.45
2018-06-19T08:19:41.708Z,19.00
2018-06-19T08:22:16.107Z,18.95
2018-06-19T08:24:46.238Z,19.92
2018-06-19T08:27:20.783Z,19.62
2018-06-19T08:29:54.635Z,19.37
2018-06-19T08:32:27.687Z,17.05
2018-06-19T08:35:01.157Z,18.00
2018-06-19T08:37:35.593Z,19.65
2018-06-19T08:40:07.025Z,18.23
2018-06-19T08:42:41.800Z,17.48
2018-06-19T08:45:14.610Z,18.50
2018-06-19T08:47:46.059Z,17.87
2018-06-19T08:50:19.434Z,16.83
2018-06-19T08:52:53.011Z,16.37
2018-06-19T08:55:24.465Z,17.08
2018-06-19T08:57:56.255Z,16.40
2018-06-19T09:00:29.420Z,16.02
2018-06-19T09:03:04.038Z,16.15
2018-06-19T09:05:35.495Z,15.38
2018-06-19T09:08:11.304Z,15.40
2018-06-19T09:10:44.384Z,15.27
2018-06-19T09:13:16.179Z,16.15
2018-06-19T09:15:47.635Z,14.82
2018-06-19T09:18:19.173Z,15.02
2018-06-19T09:20:51.382Z,14.07
2018-06-19T09:23:25.635Z,15.93
2018-06-19T09:25:57.135Z,15.07
2018-06-19T09:28:30.070Z,15.13
2018-06-19T09:31:05.020Z,14.80
2018-06-19T09:33:38.029Z,17.92
2018-06-19T09:36:13.432Z,13.85
2018-06-19T09:38:46.473Z,14.35
2018-06-19T09:41:19.606Z,12.93
2018-06-19T09:43:53.968Z,13.75
2018-06-19T09:46:23.960Z,13.15
2018-06-19T09:48:57.091Z,12.90
2018-06-19T09:51:28.533Z,13.57
2018-06-19T09:54:03.069Z,12.98
2018-06-19T09:56:36.004Z,12.75
2018-06-19T09:59:10.629Z,12.13
2018-06-19T10:01:45.321Z,11.65
2018-06-19T10:04:19.761Z,11.27
2018-06-19T10:06:51.238Z,11.45
2018-06-19T10:09:24.485Z,10.85
2018-06-19T10:11:57.549Z,9.50
2018-06-19T10:14:27.641Z,9.52
2018-06-19T10:16:59.615Z,9.65
2018-06-19T10:19:31.142Z,9.70
2018-06-19T10:22:02.748Z,9.50
2018-06-19T10:24:34.541Z,10.82
2018-06-19T10:27:05.988Z,10.15
2018-06-19T10:29:39.204Z,10.63
2018-06-19T10:32:12.383Z,10.05
2018-06-19T10:34:43.839Z,9.50
2018-06-19T10:37:18.158Z,9.20
2018-06-19T10:39:50.134Z,8.75
2018-06-19T10:42:21.608Z,11.73
2018-06-19T10:44:54.627Z,9.90
2018-06-19T10:47:27.807Z,11.07
2018-06-19T10:50:02.752Z,9.50
2018-06-19T10:52:34.761Z,8.93
2018-06-19T10:55:06.272Z,7.78
2018-06-19T10:57:39.497Z,10.25
2018-06-19T11:00:10.972Z,8.25
2018-06-19T11:02:43.884Z,6.28
2018-06-19T11:05:16.938Z,4.47
2018-06-19T11:07:48.473Z,4.10
2018-06-19T11:10:18.512Z,4.60
2018-06-19T11:12:52.667Z,4.53
2018-06-19T11:15:25.526Z,4.03
2018-06-19T11:18:00.510Z,4.50
2018-06-19T11:20:31.960Z,3.60
2018-06-19T11:23:05.955Z,4.12
2018-06-19T11:25:38.968Z,3.78
2018-06-19T11:28:13.616Z,3.70
2018-06-19T11:30:45.278Z,3.50
2018-06-19T11:33:18.271Z,3.45
2018-06-19T11:35:50.164Z,4.00
2018-06-19T11:38:21.780Z,4.47
2018-06-19T11:40:52.549Z,4.00
2018-06-19T11:43:24.396Z,3.85
2018-06-19T11:45:55.803Z,4.25
2018-06-19T11:48:26.333Z,3.62
2018-06-19T11:50:59.588Z,3.75
2018-06-19T11:53:30.996Z,4.00
2018-06-19T11:56:02.661Z,4.47
2018-06-19T11:58:34.316Z,4.15
2018-06-19T12:01:07.110Z,4.53
2018-06-19T12:03:38.772Z,4.70
2018-06-19T12:06:14.339Z,4.40
2018-06-19T12:08:49.307Z,5.20
2018-06-19T12:11:19.319Z,5.47
2018-06-19T12:13:52.505Z,5.15
2018-06-19T12:16:26.899Z,5.50
2018-06-19T12:18:56.862Z,5.72
2018-06-19T12:21:31.213Z,5.07
2018-06-19T12:24:02.642Z,5.50
2018-06-19T12:26:34.165Z,5.62
2018-06-19T12:29:05.623Z,5.80
2018-06-19T12:31:37.111Z,6.80
2018-06-19T12:34:08.528Z,5.95
2018-06-19T12:36:44.448Z,5.45
2018-06-19T12:39:17.303Z,5.10
2018-06-19T12:41:50.620Z,4.85
2018-06-19T12:44:22.224Z,4.87
2018-06-19T12:46:53.720Z,5.20
2018-06-19T12:50:18.775Z,4.70
2018-06-19T12:53:26.201Z,5.20
2018-06-19T12:56:21.540Z,5.25
2018-06-19T12:58:56.221Z,5.50
2018-06-19T13:01:28.184Z,5.35
2018-06-19T13:04:35.031Z,5.00
2018-06-19T13:07:08.351Z,5.25
2018-06-19T13:09:41.398Z,5.12
2018-06-19T13:12:47.813Z,4.53
2018-06-19T13:15:19.789Z,4.90
2018-06-19T13:18:27.658Z,5.20
2018-06-19T13:21:00.597Z,5.20
2018-06-19T13:23:32.266Z,5.05
2018-06-19T13:26:05.799Z,4.95
2018-06-19T13:29:27.504Z,5.30
2018-06-19T13:31:57.356Z,5.47
2018-06-19T13:34:31.794Z,5.18
2018-06-19T13:37:06.348Z,6.15
2018-06-19T13:39:40.639Z,4.85
2018-06-19T13:42:48.109Z,5.55
2018-06-19T13:45:21.022Z,6.30
2018-06-19T13:47:53.391Z,5.82
2018-06-19T13:50:25.127Z,6.15
2018-06-19T13:52:56.761Z,6.70
2018-06-19T13:56:07.476Z,5.85
2018-06-19T13:58:41.205Z,6.70
2018-06-19T14:01:14.195Z,6.78
2018-06-19T14:03:47.201Z,6.20
2018-06-19T14:06:22.301Z,6.37
2018-06-19T14:09:08.021Z,7.62
2018-06-19T14:12:31.642Z,7.35
2018-06-19T14:15:06.448Z,7.60
2018-06-19T14:17:37.996Z,8.43
2018-06-19T14:20:11.159Z,8.23
2018-06-19T14:22:44.149Z,8.40
2018-06-19T14:25:16.702Z,8.75
2018-06-19T14:27:49.753Z,9.10
2018-06-19T14:30:22.844Z,9.50
2018-06-19T14:32:55.353Z,10.02
2018-06-19T14:35:28.300Z,9.50
2018-06-19T14:38:02.753Z,9.57
2018-06-19T14:40:32.727Z,8.40
2018-06-19T14:43:04.488Z,9.68
2018-06-19T14:45:38.943Z,8.02
2018-06-19T14:48:10.343Z,8.15
2018-06-19T14:50:41.737Z,8.38
2018-06-19T14:53:14.950Z,7.70
2018-06-19T14:55:46.442Z,7.75
2018-06-19T14:58:19.537Z,7.60
2018-06-19T15:00:52.522Z,8.32
2018-06-19T15:03:24.779Z,8.00
2018-06-19T15:05:59.155Z,8.85
2018-06-19T15:08:31.608Z,8.75
2018-06-19T15:11:05.944Z,8.15
2018-06-19T15:13:38.289Z,8.00
2018-06-19T15:16:09.744Z,7.80
2018-06-19T15:18:41.496Z,8.10
2018-06-19T15:21:13.935Z,7.87
2018-06-19T15:23:47.864Z,7.40
2018-06-19T15:26:21.138Z,7.50
2018-06-19T15:28:53.117Z,8.57
2018-06-19T15:31:26.135Z,8.05
2018-06-19T15:33:59.723Z,7.40
2018-06-19T15:36:31.254Z,7.47
2018-06-19T15:39:04.535Z,7.50
2018-06-19T15:41:38.203Z,7.43
2018-06-19T15:44:12.784Z,6.28
2018-06-19T15:46:47.348Z,7.20
2018-06-19T15:49:20.468Z,7.32
2018-06-19T15:51:53.511Z,7.70
2018-06-19T15:54:26.418Z,7.12
2018-06-19T15:56:57.935Z,6.85
2018-06-19T15:59:29.917Z,7.55
2018-06-19T16:02:04.594Z,7.50
2018-06-19T16:04:39.143Z,7.03
2018-06-19T16:07:12.289Z,7.80
2018-06-19T16:09:42.336Z,7.72
2018-06-19T16:12:16.274Z,7.37
2018-06-19T16:14:49.140Z,6.70
2018-06-19T16:17:23.609Z,7.30
2018-06-19T16:19:56.573Z,8.10
2018-06-19T16:22:29.787Z,8.35
2018-06-19T16:25:01.263Z,7.12
2018-06-19T16:27:32.761Z,7.45
2018-06-19T16:30:04.689Z,7.65
2018-06-19T16:32:37.776Z,7.28
2018-06-19T16:35:10.867Z,8.07
2018-06-19T16:37:42.860Z,16.70
2018-06-19T16:40:15.912Z,13.43
2018-06-19T16:42:49.420Z,10.27
2018-06-19T16:45:23.628Z,13.70
2018-06-19T16:47:53.214Z,7.85
2018-06-19T16:50:24.567Z,13.48
2018-06-19T16:52:57.695Z,8.23
2018-06-19T16:55:30.698Z,7.70
2018-06-19T16:58:02.244Z,9.35
2018-06-19T17:00:36.669Z,9.00
2018-06-19T17:03:11.129Z,22.77
2018-06-19T17:05:44.387Z,19.02
2018-06-19T17:08:15.766Z,35.08
2018-06-19T17:10:49.005Z,43.95
2018-06-19T17:13:21.816Z,75.80
2018-06-19T17:15:54.719Z,41.88
2018-06-19T17:18:27.746Z,24.27
2018-06-19T17:20:59.961Z,49.63
2018-06-19T17:23:33.142Z,49.80
2018-06-19T17:26:04.267Z,23.95
2018-06-19T17:28:35.812Z,111.82
2018-06-19T17:31:07.175Z,16.62
2018-06-19T17:33:40.155Z,18.12
2018-06-19T17:36:11.696Z,59.83
2018-06-19T17:38:45.960Z,6.05
2018-06-19T17:41:18.557Z,5.43
2018-06-19T17:43:51.702Z,5.30
2018-06-19T17:46:25.266Z,5.03
2018-06-19T17:48:58.466Z,6.43
2018-06-19T17:51:32.403Z,5.80
2018-06-19T17:54:05.379Z,4.95
2018-06-19T17:56:38.485Z,4.68
2018-06-19T17:59:09.901Z,5.45
2018-06-19T18:01:41.370Z,5.20
2018-06-19T18:04:12.796Z,6.78
2018-06-19T18:06:47.517Z,7.03
2018-06-19T18:09:23.773Z,4.82
2018-06-19T18:11:54.327Z,5.70
2018-06-19T18:14:27.803Z,5.25
2018-06-19T18:16:58.463Z,4.18
2018-06-19T18:19:29.865Z,4.40
2018-06-19T18:22:04.540Z,4.18
2018-06-19T18:24:39.097Z,5.00
2018-06-19T18:27:12.158Z,5.07
2018-06-19T18:29:44.977Z,5.62
2018-06-19T18:32:18.423Z,4.97
2018-06-19T18:34:51.316Z,4.97
2018-06-19T18:37:26.039Z,4.65
2018-06-19T18:39:57.432Z,4.80
2018-06-19T18:42:31.939Z,4.82
2018-06-19T18:45:03.160Z,4.57
2018-06-19T18:47:34.599Z,4.97
2018-06-19T18:50:06.020Z,4.62
2018-06-19T18:52:39.143Z,4.70
2018-06-19T18:55:11.982Z,4.93
2018-06-19T18:57:45.092Z,5.07
2018-06-19T19:00:16.566Z,5.45
2018-06-19T19:02:48.028Z,5.85
2018-06-19T19:05:22.832Z,5.60
2018-06-19T19:07:54.296Z,5.80
2018-06-19T19:10:43.670Z,6.72
2018-06-19T19:13:18.171Z,6.80
2018-06-19T19:16:05.627Z,8.68
2018-06-19T19:18:54.807Z,10.73
2018-06-19T19:21:25.586Z,9.60
2018-06-19T19:23:57.078Z,8.77
2018-06-19T19:26:44.804Z,10.10
2018-06-19T19:29:33.877Z,15.85
2018-06-19T19:32:05.729Z,21.45
2018-06-19T19:34:38.621Z,23.48
2018-06-19T19:37:26.139Z,13.50
2018-06-19T19:39:59.201Z,8.85
2018-06-19T19:42:32.442Z,11.73
2018-06-19T19:45:07.023Z,16.48
2018-06-19T19:47:56.413Z,8.35
2018-06-19T19:50:29.375Z,8.02
2018-06-19T19:53:02.505Z,7.25
2018-06-19T19:55:35.349Z,18.02
2018-06-19T19:58:24.543Z,10.90
2018-06-19T20:00:56.297Z,9.20
2018-06-19T20:03:30.753Z,10.43
2018-06-19T20:06:03.870Z,8.52
2018-06-19T20:08:35.237Z,8.50
2018-06-19T20:11:09.604Z,10.73
2018-06-19T20:13:40.999Z,14.10
2018-06-19T20:16:15.467Z,15.02
2018-06-19T20:18:49.828Z,14.00
2018-06-19T20:21:21.704Z,16.70
2018-06-19T20:23:54.558Z,15.50
2018-06-19T20:26:29.363Z,15.98
2018-06-19T20:29:03.883Z,14.93
2018-06-19T20:31:38.249Z,16.83
2018-06-19T20:34:08.399Z,33.55
2018-06-19T20:36:42.841Z,35.35
2018-06-19T20:39:17.203Z,33.00
2018-06-19T20:41:47.697Z,33.58
2018-06-19T20:44:19.246Z,36.28
2018-06-19T20:46:53.716Z,31.52
2018-06-19T20:49:28.098Z,50.83
2018-06-19T20:52:00.035Z,43.17
2018-06-19T20:54:34.898Z,47.97
2018-06-19T20:57:06.296Z,39.92
2018-06-19T20:59:37.727Z,28.38
2018-06-19T21:02:09.173Z,29.52
2018-06-19T21:04:44.232Z,32.60
2018-06-19T21:07:15.747Z,25.40
2018-06-19T21:09:48.678Z,25.00
2018-06-19T21:12:20.457Z,18.23
2018-06-19T21:14:54.943Z,28.27
2018-06-19T21:17:25.102Z,15.13
2018-06-19T21:19:58.124Z,13.73
2018-06-19T21:22:32.860Z,14.38
2018-06-19T21:25:04.729Z,13.57
2018-06-19T21:27:39.670Z,11.65
2018-06-19T21:30:14.297Z,13.10
2018-06-19T21:32:46.355Z,13.88
2018-06-19T21:35:19.474Z,16.00
2018-06-19T21:37:52.282Z,16.05
2018-06-19T21:40:22.301Z,17.25
2018-06-19T21:42:56.874Z,21.30
2018-06-19T21:45:31.329Z,19.33
2018-06-19T21:48:02.974Z,18.98
2018-06-19T21:50:36.467Z,23.25
2018-06-19T21:53:09.368Z,24.87
2018-06-19T21:55:42.386Z,24.00
2018-06-19T21:58:15.282Z,27.37
2018-06-19T22:00:48.159Z,29.58
2018-06-19T22:03:21.654Z,24.27
2018-06-19T22:05:56.422Z,18.40
2018-06-19T22:08:46.827Z,23.55
2018-06-19T22:11:21.166Z,20.15
2018-06-19T22:13:54.654Z,18.27
2018-06-19T22:16:28.142Z,21.23
2018-06-19T22:18:59.724Z,20.55
2018-06-19T22:21:31.333Z,30.33
2018-06-19T22:24:05.913Z,56.40
2018-06-19T22:26:37.974Z,70.30
2018-06-19T22:29:11.059Z,50.38
2018-06-19T22:31:45.437Z,30.45
2018-06-19T22:34:19.921Z,26.77
2018-06-19T22:36:53.097Z,25.02
2018-06-19T22:39:27.728Z,29.33
2018-06-19T22:42:00.633Z,31.60
2018-06-19T22:44:33.541Z,26.10
2018-06-19T22:47:03.466Z,22.80
2018-06-19T22:49:36.692Z,27.08
2018-06-19T22:52:09.546Z,30.17
2018-06-19T22:54:42.655Z,23.00
2018-06-19T22:57:15.621Z,29.50
2018-06-19T22:59:49.075Z,52.30
2018-06-19T23:02:20.824Z,32.83
2018-06-19T23:04:52.559Z,36.17
2018-06-19T23:07:24.217Z,34.05
2018-06-19T23:09:56.356Z,38.15
2018-06-19T23:12:29.343Z,51.63
2018-06-19T23:15:02.310Z,59.08
2018-06-19T23:17:36.905Z,47.55
2018-06-19T23:20:08.515Z,34.50
2018-06-19T23:22:43.010Z,38.90
2018-06-19T23:25:16.471Z,36.80
2018-06-19T23:27:49.362Z,31.25
2018-06-19T23:30:22.449Z,31.77
2018-06-19T23:32:53.876Z,28.12
2018-06-19T23:35:23.872Z,29.42
2018-06-19T23:37:58.531Z,32.00
2018-06-19T23:40:29.911Z,38.08
2018-06-19T23:43:01.347Z,33.58
2018-06-19T23:45:32.793Z,41.90
2018-06-19T23:48:05.916Z,33.65
2018-06-19T23:50:37.774Z,34.35
2018-06-19T23:53:09.250Z,34.88
2018-06-19T23:55:43.694Z,46.72
2018-06-19T23:58:18.013Z,33.47
